sensor_id;sensor_type;location;lat;lon;timestamp;P1;durP1;ratioP1;P2;durP2;ratioP2
68872;SDS011;55907;50.806;12.882;2023-08-21T00:01:13;534.2;;;480.6;;
68872;SDS011;55907;50.806;12.882;2023-08-21T00:04:14;553.2;;;498.7;;
68872;SDS011;55907;50.806;12.882;2023-08-21T00:07:16;601.2;;;543.6;;
68872;SDS011;55907;50.806;12.882;2023-08-21T00:10:17;679.6;;;617.0;;
68872;SDS011;55907;50.806;12.882;2023-08-21T00:13:19;782.6;;;711.5;;
68872;SDS011;55907;50.806;12.882;2023-08-21T00:16:20;813.8;;;740.0;;
68872;SDS011;55907;50.806;12.882;2023-08-21T00:19:22;812.3;;;738.4;;
68872;SDS011;55907;50.806;12.882;2023-08-21T00:22:23;814.8;;;740.5;;
68872;SDS011;55907;50.806;12.882;2023-08-21T00:25:24;843.7;;;766.2;;
68872;SDS011;55907;50.806;12.882;2023-08-21T00:28:26;881.4;;;800.7;;
68872;SDS011;55907;50.806;12.882;2023-08-21T00:31:27;916.7;;;833.1;;
68872;SDS011;55907;50.806;12.882;2023-08-21T00:34:29;948.5;;;862.0;;
68872;SDS011;55907;50.806;12.882;2023-08-21T00:37:30;979.0;;;890.2;;
68872;SDS011;55907;50.806;12.882;2023-08-21T00:40:31;1005.5;;;914.1;;
68872;SDS011;55907;50.806;12.882;2023-08-21T00:43:33;1031.0;;;937.2;;
68872;SDS011;55907;50.806;12.882;2023-08-21T00:46:34;1044.7;;;950.1;;
68872;SDS011;55907;50.806;12.882;2023-08-21T00:49:36;1054.8;;;959.6;;
68872;SDS011;55907;50.806;12.882;2023-08-21T00:52:37;1060.1;;;966.3;;
68872;SDS011;55907;50.806;12.882;2023-08-21T00:55:39;1062.6;;;970.7;;
68872;SDS011;55907;50.806;12.882;2023-08-21T00:58:40;1059.2;;;969.7;;
68872;SDS011;55907;50.806;12.882;2023-08-21T01:01:41;1055.3;;;968.9;;
68872;SDS011;55907;50.806;12.882;2023-08-21T01:04:43;1037.2;;;954.9;;
68872;SDS011;55907;50.806;12.882;2023-08-21T01:07:46;1004.9;;;927.5;;
68872;SDS011;55907;50.806;12.882;2023-08-21T01:10:48;957.4;;;884.8;;
68872;SDS011;55907;50.806;12.882;2023-08-21T01:13:48;898.0;;;829.8;;
68872;SDS011;55907;50.806;12.882;2023-08-21T01:16:48;823.0;;;759.4;;
68872;SDS011;55907;50.806;12.882;2023-08-21T01:19:50;751.7;;;692.4;;
68872;SDS011;55907;50.806;12.882;2023-08-21T01:22:51;702.3;;;645.3;;
68872;SDS011;55907;50.806;12.882;2023-08-21T01:25:52;666.1;;;610.4;;
68872;SDS011;55907;50.806;12.882;2023-08-21T01:28:54;611.2;;;559.1;;
68872;SDS011;55907;50.806;12.882;2023-08-21T01:31:57;599.8;;;547.8;;
68872;SDS011;55907;50.806;12.882;2023-08-21T01:34:57;570.8;;;519.6;;
68872;SDS011;55907;50.806;12.882;2023-08-21T01:37:58;562.8;;;510.5;;
68872;SDS011;55907;50.806;12.882;2023-08-21T01:40:59;570.6;;;515.7;;
68872;SDS011;55907;50.806;12.882;2023-08-21T01:44:01;576.9;;;517.9;;
68872;SDS011;55907;50.806;12.882;2023-08-21T01:47:02;608.4;;;540.7;;
68872;SDS011;55907;50.806;12.882;2023-08-21T01:50:04;664.3;;;558.9;;
68872;SDS011;55907;50.806;12.882;2023-08-21T01:53:05;692.0;;;561.5;;
68872;SDS011;55907;50.806;12.882;2023-08-21T01:56:06;767.4;;;613.2;;
68872;SDS011;55907;50.806;12.882;2023-08-21T01:59:08;838.0;;;660.6;;
68872;SDS011;55907;50.806;12.882;2023-08-21T02:02:09;905.7;;;704.0;;
68872;SDS011;55907;50.806;12.882;2023-08-21T02:05:11;984.4;;;763.4;;
68872;SDS011;55907;50.806;12.882;2023-08-21T02:08:13;1073.7;;;809.5;;
68872;SDS011;55907;50.806;12.882;2023-08-21T02:11:14;1151.1;;;854.6;;
68872;SDS011;55907;50.806;12.882;2023-08-21T02:14:15;1204.4;;;893.7;;
68872;SDS011;55907;50.806;12.882;2023-08-21T02:17:16;1256.0;;;926.3;;
68872;SDS011;55907;50.806;12.882;2023-08-21T02:20:18;1330.1;;;965.6;;
68872;SDS011;55907;50.806;12.882;2023-08-21T02:23:19;1353.5;;;982.1;;
68872;SDS011;55907;50.806;12.882;2023-08-21T02:26:21;1370.0;;;998.7;;
68872;SDS011;55907;50.806;12.882;2023-08-21T02:29:22;1375.7;;;999.9;;
68872;SDS011;55907;50.806;12.882;2023-08-21T02:32:23;1359.8;;;999.9;;
68872;SDS011;55907;50.806;12.882;2023-08-21T02:35:25;1353.9;;;999.9;;
68872;SDS011;55907;50.806;12.882;2023-08-21T02:38:26;1334.2;;;999.9;;
68872;SDS011;55907;50.806;12.882;2023-08-21T02:41:28;1303.3;;;999.9;;
68872;SDS011;55907;50.806;12.882;2023-08-21T02:44:29;1282.3;;;999.9;;
68872;SDS011;55907;50.806;12.882;2023-08-21T02:47:30;1243.7;;;992.0;;
68872;SDS011;55907;50.806;12.882;2023-08-21T02:50:32;1200.4;;;981.0;;
68872;SDS011;55907;50.806;12.882;2023-08-21T02:53:33;1175.2;;;967.6;;
68872;SDS011;55907;50.806;12.882;2023-08-21T02:56:35;1121.3;;;939.3;;
68872;SDS011;55907;50.806;12.882;2023-08-21T02:59:36;1075.7;;;921.4;;
68872;SDS011;55907;50.806;12.882;2023-08-21T03:02:37;1015.1;;;901.8;;
68872;SDS011;55907;50.806;12.882;2023-08-21T03:05:39;965.6;;;861.5;;
68872;SDS011;55907;50.806;12.882;2023-08-21T03:08:40;919.2;;;822.1;;
68872;SDS011;55907;50.806;12.882;2023-08-21T03:11:42;884.5;;;794.4;;
68872;SDS011;55907;50.806;12.882;2023-08-21T03:14:43;831.3;;;749.1;;
68872;SDS011;55907;50.806;12.882;2023-08-21T03:17:44;779.5;;;703.4;;
68872;SDS011;55907;50.806;12.882;2023-08-21T03:20:46;748.2;;;678.2;;
68872;SDS011;55907;50.806;12.882;2023-08-21T03:23:47;724.2;;;659.7;;
68872;SDS011;55907;50.806;12.882;2023-08-21T03:26:49;674.2;;;615.6;;
68872;SDS011;55907;50.806;12.882;2023-08-21T03:29:50;655.4;;;601.1;;
68872;SDS011;55907;50.806;12.882;2023-08-21T03:32:52;633.7;;;582.8;;
68872;SDS011;55907;50.806;12.882;2023-08-21T03:35:53;605.2;;;558.6;;
68872;SDS011;55907;50.806;12.882;2023-08-21T03:38:54;588.4;;;544.2;;
68872;SDS011;55907;50.806;12.882;2023-08-21T03:41:56;553.6;;;513.7;;
68872;SDS011;55907;50.806;12.882;2023-08-21T03:44:57;541.0;;;503.5;;
68872;SDS011;55907;50.806;12.882;2023-08-21T03:47:59;504.5;;;470.5;;
68872;SDS011;55907;50.806;12.882;2023-08-21T03:51:00;459.2;;;428.8;;
68872;SDS011;55907;50.806;12.882;2023-08-21T03:54:01;410.1;;;383.3;;
68872;SDS011;55907;50.806;12.882;2023-08-21T03:57:03;363.5;;;339.8;;
68872;SDS011;55907;50.806;12.882;2023-08-21T04:00:05;354.4;;;330.9;;
68872;SDS011;55907;50.806;12.882;2023-08-21T04:03:06;361.9;;;337.1;;
68872;SDS011;55907;50.806;12.882;2023-08-21T04:06:07;377.7;;;350.9;;
68872;SDS011;55907;50.806;12.882;2023-08-21T04:09:08;417.6;;;388.6;;
68872;SDS011;55907;50.806;12.882;2023-08-21T04:12:10;462.8;;;430.7;;
68872;SDS011;55907;50.806;12.882;2023-08-21T04:15:11;480.3;;;447.6;;
68872;SDS011;55907;50.806;12.882;2023-08-21T04:18:13;463.0;;;431.4;;
68872;SDS011;55907;50.806;12.882;2023-08-21T04:21:14;420.5;;;392.1;;
68872;SDS011;55907;50.806;12.882;2023-08-21T04:24:15;379.9;;;355.3;;
68872;SDS011;55907;50.806;12.882;2023-08-21T04:27:17;372.3;;;348.8;;
68872;SDS011;55907;50.806;12.882;2023-08-21T04:30:18;344.5;;;323.1;;
68872;SDS011;55907;50.806;12.882;2023-08-21T04:33:20;334.6;;;313.7;;
68872;SDS011;55907;50.806;12.882;2023-08-21T04:36:21;336.5;;;315.5;;
68872;SDS011;55907;50.806;12.882;2023-08-21T04:39:23;347.9;;;326.3;;
68872;SDS011;55907;50.806;12.882;2023-08-21T04:42:24;370.9;;;347.9;;
68872;SDS011;55907;50.806;12.882;2023-08-21T04:45:25;377.5;;;354.5;;
68872;SDS011;55907;50.806;12.882;2023-08-21T04:48:27;384.7;;;361.4;;
68872;SDS011;55907;50.806;12.882;2023-08-21T04:51:28;388.5;;;365.0;;
68872;SDS011;55907;50.806;12.882;2023-08-21T04:54:30;398.4;;;374.4;;
68872;SDS011;55907;50.806;12.882;2023-08-21T04:57:31;399.3;;;375.3;;
68872;SDS011;55907;50.806;12.882;2023-08-21T05:00:32;387.7;;;364.3;;
68872;SDS011;55907;50.806;12.882;2023-08-21T05:03:34;387.4;;;363.7;;
68872;SDS011;55907;50.806;12.882;2023-08-21T05:06:35;389.5;;;365.7;;
68872;SDS011;55907;50.806;12.882;2023-08-21T05:09:37;400.1;;;375.6;;
68872;SDS011;55907;50.806;12.882;2023-08-21T05:12:38;398.4;;;373.9;;
68872;SDS011;55907;50.806;12.882;2023-08-21T05:15:39;489.9;;;458.8;;
68872;SDS011;55907;50.806;12.882;2023-08-21T05:18:41;711.7;;;661.4;;
68872;SDS011;55907;50.806;12.882;2023-08-21T05:21:42;676.0;;;626.9;;
68872;SDS011;55907;50.806;12.882;2023-08-21T05:24:44;626.1;;;578.1;;
68872;SDS011;55907;50.806;12.882;2023-08-21T05:27:45;610.8;;;562.7;;
68872;SDS011;55907;50.806;12.882;2023-08-21T05:30:46;616.8;;;566.7;;
68872;SDS011;55907;50.806;12.882;2023-08-21T05:33:48;619.2;;;566.6;;
68872;SDS011;55907;50.806;12.882;2023-08-21T05:36:49;631.7;;;577.1;;
68872;SDS011;55907;50.806;12.882;2023-08-21T05:39:51;641.6;;;584.6;;
68872;SDS011;55907;50.806;12.882;2023-08-21T05:42:52;641.9;;;582.1;;
68872;SDS011;55907;50.806;12.882;2023-08-21T05:45:53;633.8;;;570.4;;
68872;SDS011;55907;50.806;12.882;2023-08-21T05:48:55;621.0;;;556.5;;
68872;SDS011;55907;50.806;12.882;2023-08-21T05:51:56;604.0;;;539.2;;
68872;SDS011;55907;50.806;12.882;2023-08-21T05:54:58;587.2;;;523.7;;
68872;SDS011;55907;50.806;12.882;2023-08-21T05:57:59;575.4;;;512.5;;
68872;SDS011;55907;50.806;12.882;2023-08-21T06:01:00;570.7;;;508.2;;
68872;SDS011;55907;50.806;12.882;2023-08-21T06:04:02;582.6;;;518.3;;
68872;SDS011;55907;50.806;12.882;2023-08-21T06:07:03;592.6;;;527.5;;
68872;SDS011;55907;50.806;12.882;2023-08-21T06:10:05;599.4;;;533.3;;
68872;SDS011;55907;50.806;12.882;2023-08-21T06:13:06;617.2;;;550.1;;
68872;SDS011;55907;50.806;12.882;2023-08-21T06:16:07;620.7;;;554.9;;
68872;SDS011;55907;50.806;12.882;2023-08-21T06:19:09;616.8;;;554.5;;
68872;SDS011;55907;50.806;12.882;2023-08-21T06:22:10;614.9;;;554.3;;
68872;SDS011;55907;50.806;12.882;2023-08-21T06:25:11;628.1;;;568.3;;
68872;SDS011;55907;50.806;12.882;2023-08-21T06:28:13;643.9;;;582.4;;
68872;SDS011;55907;50.806;12.882;2023-08-21T06:31:14;638.7;;;577.5;;
68872;SDS011;55907;50.806;12.882;2023-08-21T06:34:15;668.4;;;604.6;;
68872;SDS011;55907;50.806;12.882;2023-08-21T06:37:17;693.6;;;626.9;;
68872;SDS011;55907;50.806;12.882;2023-08-21T06:40:18;703.6;;;635.3;;
68872;SDS011;55907;50.806;12.882;2023-08-21T06:43:20;700.7;;;631.3;;
68872;SDS011;55907;50.806;12.882;2023-08-21T06:46:21;704.6;;;634.8;;
68872;SDS011;55907;50.806;12.882;2023-08-21T06:49:22;709.1;;;638.2;;
68872;SDS011;55907;50.806;12.882;2023-08-21T06:52:24;727.6;;;654.9;;
68872;SDS011;55907;50.806;12.882;2023-08-21T06:55:25;725.3;;;653.2;;
68872;SDS011;55907;50.806;12.882;2023-08-21T06:58:26;713.0;;;643.5;;
68872;SDS011;55907;50.806;12.882;2023-08-21T07:01:28;706.9;;;637.3;;
68872;SDS011;55907;50.806;12.882;2023-08-21T07:04:29;681.4;;;613.5;;
68872;SDS011;55907;50.806;12.882;2023-08-21T07:07:31;668.0;;;600.4;;
68872;SDS011;55907;50.806;12.882;2023-08-21T07:10:35;664.6;;;597.1;;
68872;SDS011;55907;50.806;12.882;2023-08-21T07:13:33;670.8;;;602.8;;
68872;SDS011;55907;50.806;12.882;2023-08-21T07:16:35;680.9;;;611.8;;
68872;SDS011;55907;50.806;12.882;2023-08-21T07:19:36;693.3;;;623.7;;
68872;SDS011;55907;50.806;12.882;2023-08-21T07:22:38;703.1;;;633.3;;
68872;SDS011;55907;50.806;12.882;2023-08-21T07:25:39;704.4;;;634.7;;
68872;SDS011;55907;50.806;12.882;2023-08-21T07:28:40;708.6;;;638.7;;
68872;SDS011;55907;50.806;12.882;2023-08-21T07:31:42;732.3;;;661.1;;
68872;SDS011;55907;50.806;12.882;2023-08-21T07:34:43;746.3;;;674.6;;
68872;SDS011;55907;50.806;12.882;2023-08-21T07:37:44;749.3;;;677.5;;
68872;SDS011;55907;50.806;12.882;2023-08-21T07:40:46;752.9;;;680.9;;
68872;SDS011;55907;50.806;12.882;2023-08-21T07:43:47;735.1;;;664.1;;
68872;SDS011;55907;50.806;12.882;2023-08-21T07:46:48;726.0;;;654.7;;
68872;SDS011;55907;50.806;12.882;2023-08-21T07:49:50;720.0;;;648.6;;
68872;SDS011;55907;50.806;12.882;2023-08-21T07:52:51;729.4;;;657.3;;
68872;SDS011;55907;50.806;12.882;2023-08-21T07:55:53;736.7;;;664.5;;
68872;SDS011;55907;50.806;12.882;2023-08-21T07:58:54;761.8;;;689.4;;
68872;SDS011;55907;50.806;12.882;2023-08-21T08:01:55;780.7;;;707.2;;
68872;SDS011;55907;50.806;12.882;2023-08-21T08:04:57;768.2;;;695.9;;
68872;SDS011;55907;50.806;12.882;2023-08-21T08:07:58;775.5;;;703.4;;
68872;SDS011;55907;50.806;12.882;2023-08-21T08:11:00;780.8;;;707.9;;
68872;SDS011;55907;50.806;12.882;2023-08-21T08:14:01;777.3;;;704.7;;
68872;SDS011;55907;50.806;12.882;2023-08-21T08:17:02;778.5;;;705.6;;
68872;SDS011;55907;50.806;12.882;2023-08-21T08:20:04;770.9;;;699.3;;
68872;SDS011;55907;50.806;12.882;2023-08-21T08:23:05;787.6;;;714.8;;
68872;SDS011;55907;50.806;12.882;2023-08-21T08:26:06;790.5;;;717.4;;
68872;SDS011;55907;50.806;12.882;2023-08-21T08:29:07;791.5;;;718.4;;
68872;SDS011;55907;50.806;12.882;2023-08-21T08:32:09;795.9;;;722.3;;
68872;SDS011;55907;50.806;12.882;2023-08-21T08:35:10;798.2;;;724.0;;
68872;SDS011;55907;50.806;12.882;2023-08-21T08:38:12;778.1;;;705.2;;
68872;SDS011;55907;50.806;12.882;2023-08-21T08:41:14;776.1;;;704.0;;
68872;SDS011;55907;50.806;12.882;2023-08-21T08:44:14;784.7;;;712.2;;
68872;SDS011;55907;50.806;12.882;2023-08-21T08:47:16;787.1;;;714.1;;
68872;SDS011;55907;50.806;12.882;2023-08-21T08:50:17;776.8;;;706.1;;
68872;SDS011;55907;50.806;12.882;2023-08-21T08:53:18;790.8;;;720.2;;
68872;SDS011;55907;50.806;12.882;2023-08-21T08:56:20;821.3;;;748.8;;
68872;SDS011;55907;50.806;12.882;2023-08-21T08:59:21;822.4;;;749.4;;
68872;SDS011;55907;50.806;12.882;2023-08-21T09:02:23;824.8;;;752.3;;
68872;SDS011;55907;50.806;12.882;2023-08-21T09:05:24;825.2;;;752.1;;
68872;SDS011;55907;50.806;12.882;2023-08-21T09:08:25;832.9;;;758.5;;
68872;SDS011;55907;50.806;12.882;2023-08-21T09:11:27;911.3;;;835.2;;
68872;SDS011;55907;50.806;12.882;2023-08-21T09:14:29;742.7;;;683.2;;
68872;SDS011;55907;50.806;12.882;2023-08-21T09:17:29;957.6;;;879.1;;
68872;SDS011;55907;50.806;12.882;2023-08-21T09:20:34;880.0;;;811.3;;
68872;SDS011;55907;50.806;12.882;2023-08-21T09:23:32;596.7;;;554.1;;
68872;SDS011;55907;50.806;12.882;2023-08-21T09:26:33;446.3;;;413.6;;
68872;SDS011;55907;50.806;12.882;2023-08-21T09:29:38;605.7;;;559.5;;
68872;SDS011;55907;50.806;12.882;2023-08-21T09:32:51;759.6;;;699.2;;
68872;SDS011;55907;50.806;12.882;2023-08-21T09:35:37;893.4;;;815.3;;
68872;SDS011;55907;50.806;12.882;2023-08-21T09:38:39;962.7;;;863.7;;
68872;SDS011;55907;50.806;12.882;2023-08-21T09:41:40;994.9;;;861.9;;
68872;SDS011;55907;50.806;12.882;2023-08-21T09:44:41;1045.9;;;866.1;;
68872;SDS011;55907;50.806;12.882;2023-08-21T09:47:42;1010.2;;;781.7;;
68872;SDS011;55907;50.806;12.882;2023-08-21T09:50:44;978.3;;;764.3;;
68872;SDS011;55907;50.806;12.882;2023-08-21T09:53:45;971.0;;;801.6;;
68872;SDS011;55907;50.806;12.882;2023-08-21T09:56:46;972.7;;;843.6;;
68872;SDS011;55907;50.806;12.882;2023-08-21T09:59:48;1003.4;;;887.9;;
68872;SDS011;55907;50.806;12.882;2023-08-21T10:02:50;1037.9;;;915.8;;
68872;SDS011;55907;50.806;12.882;2023-08-21T10:05:51;1021.9;;;903.6;;
68872;SDS011;55907;50.806;12.882;2023-08-21T10:08:53;1020.7;;;875.8;;
68872;SDS011;55907;50.806;12.882;2023-08-21T10:11:53;1031.1;;;844.1;;
68872;SDS011;55907;50.806;12.882;2023-08-21T10:14:54;1058.1;;;810.0;;
68872;SDS011;55907;50.806;12.882;2023-08-21T10:17:56;1050.8;;;797.5;;
68872;SDS011;55907;50.806;12.882;2023-08-21T10:21:02;1010.8;;;807.6;;
68872;SDS011;55907;50.806;12.882;2023-08-21T10:23:59;870.0;;;788.5;;
68872;SDS011;55907;50.806;12.882;2023-08-21T10:27:00;838.1;;;762.6;;
68872;SDS011;55907;50.806;12.882;2023-08-21T10:30:04;771.3;;;698.4;;
68872;SDS011;55907;50.806;12.882;2023-08-21T10:33:03;768.9;;;695.2;;
68872;SDS011;55907;50.806;12.882;2023-08-21T10:36:04;793.4;;;717.8;;
68872;SDS011;55907;50.806;12.882;2023-08-21T10:39:12;805.3;;;729.8;;
68872;SDS011;55907;50.806;12.882;2023-08-21T10:42:08;819.8;;;742.1;;
68872;SDS011;55907;50.806;12.882;2023-08-21T10:45:11;862.0;;;781.0;;
68872;SDS011;55907;50.806;12.882;2023-08-21T10:48:09;888.5;;;806.5;;
68872;SDS011;55907;50.806;12.882;2023-08-21T10:51:10;870.7;;;793.4;;
68872;SDS011;55907;50.806;12.882;2023-08-21T10:54:12;885.1;;;810.9;;
68872;SDS011;55907;50.806;12.882;2023-08-21T10:57:13;853.7;;;783.3;;
68872;SDS011;55907;50.806;12.882;2023-08-21T11:00:15;821.2;;;754.2;;
68872;SDS011;55907;50.806;12.882;2023-08-21T11:03:16;792.8;;;727.8;;
68872;SDS011;55907;50.806;12.882;2023-08-21T11:06:18;785.9;;;721.1;;
68872;SDS011;55907;50.806;12.882;2023-08-21T11:09:19;777.7;;;714.2;;
68872;SDS011;55907;50.806;12.882;2023-08-21T11:12:20;788.0;;;725.4;;
68872;SDS011;55907;50.806;12.882;2023-08-21T11:15:21;789.6;;;728.7;;
68872;SDS011;55907;50.806;12.882;2023-08-21T11:18:28;748.5;;;690.0;;
68872;SDS011;55907;50.806;12.882;2023-08-21T11:21:24;766.1;;;705.6;;
68872;SDS011;55907;50.806;12.882;2023-08-21T11:24:29;803.9;;;739.6;;
68872;SDS011;55907;50.806;12.882;2023-08-21T11:27:27;841.2;;;774.5;;
68872;SDS011;55907;50.806;12.882;2023-08-21T11:30:28;865.2;;;797.1;;
68872;SDS011;55907;50.806;12.882;2023-08-21T11:33:30;865.8;;;797.7;;
68872;SDS011;55907;50.806;12.882;2023-08-21T11:36:31;883.8;;;814.8;;
68872;SDS011;55907;50.806;12.882;2023-08-21T11:42:33;912.4;;;840.7;;
68872;SDS011;55907;50.806;12.882;2023-08-21T11:45:35;956.9;;;881.3;;
68872;SDS011;55907;50.806;12.882;2023-08-21T11:48:36;942.1;;;868.7;;
68872;SDS011;55907;50.806;12.882;2023-08-21T11:51:38;951.4;;;876.4;;
68872;SDS011;55907;50.806;12.882;2023-08-21T11:54:39;978.0;;;899.2;;
68872;SDS011;55907;50.806;12.882;2023-08-21T11:57:48;992.3;;;910.4;;
68872;SDS011;55907;50.806;12.882;2023-08-21T12:00:41;967.6;;;883.3;;
68872;SDS011;55907;50.806;12.882;2023-08-21T12:03:43;930.4;;;844.6;;
68872;SDS011;55907;50.806;12.882;2023-08-21T12:06:44;914.3;;;829.1;;
68872;SDS011;55907;50.806;12.882;2023-08-21T12:09:46;908.9;;;822.5;;
68872;SDS011;55907;50.806;12.882;2023-08-21T12:12:47;895.0;;;809.7;;
68872;SDS011;55907;50.806;12.882;2023-08-21T12:15:48;913.7;;;827.4;;
68872;SDS011;55907;50.806;12.882;2023-08-21T12:18:49;902.9;;;816.0;;
68872;SDS011;55907;50.806;12.882;2023-08-21T12:21:51;888.9;;;802.0;;
68872;SDS011;55907;50.806;12.882;2023-08-21T12:24:52;887.1;;;799.8;;
68872;SDS011;55907;50.806;12.882;2023-08-21T12:27:53;921.0;;;832.2;;
68872;SDS011;55907;50.806;12.882;2023-08-21T12:30:55;899.9;;;810.6;;
68872;SDS011;55907;50.806;12.882;2023-08-21T12:33:56;878.8;;;791.2;;
68872;SDS011;55907;50.806;12.882;2023-08-21T12:36:57;910.9;;;822.4;;
68872;SDS011;55907;50.806;12.882;2023-08-21T12:39:59;948.6;;;859.2;;
68872;SDS011;55907;50.806;12.882;2023-08-21T12:43:00;1003.5;;;911.2;;
68872;SDS011;55907;50.806;12.882;2023-08-21T12:46:01;1002.3;;;909.9;;
68872;SDS011;55907;50.806;12.882;2023-08-21T12:49:03;973.6;;;882.4;;
68872;SDS011;55907;50.806;12.882;2023-08-21T12:52:04;989.6;;;896.7;;
68872;SDS011;55907;50.806;12.882;2023-08-21T12:55:05;956.9;;;866.1;;
68872;SDS011;55907;50.806;12.882;2023-08-21T12:58:07;917.0;;;828.6;;
68872;SDS011;55907;50.806;12.882;2023-08-21T13:01:08;914.4;;;827.8;;
68872;SDS011;55907;50.806;12.882;2023-08-21T13:04:09;930.8;;;844.2;;
68872;SDS011;55907;50.806;12.882;2023-08-21T13:07:11;959.4;;;871.6;;
68872;SDS011;55907;50.806;12.882;2023-08-21T13:10:12;1027.2;;;933.8;;
68872;SDS011;55907;50.806;12.882;2023-08-21T13:13:13;1029.9;;;935.4;;
68872;SDS011;55907;50.806;12.882;2023-08-21T13:16:15;1008.1;;;914.7;;
68872;SDS011;55907;50.806;12.882;2023-08-21T13:19:16;956.2;;;865.8;;
68872;SDS011;55907;50.806;12.882;2023-08-21T13:22:17;903.8;;;816.9;;
68872;SDS011;55907;50.806;12.882;2023-08-21T13:25:19;891.8;;;805.5;;
68872;SDS011;55907;50.806;12.882;2023-08-21T13:28:20;885.6;;;802.1;;
68872;SDS011;55907;50.806;12.882;2023-08-21T13:31:21;889.6;;;807.1;;
68872;SDS011;55907;50.806;12.882;2023-08-21T13:34:23;893.5;;;812.3;;
68872;SDS011;55907;50.806;12.882;2023-08-21T13:37:24;891.6;;;809.8;;
68872;SDS011;55907;50.806;12.882;2023-08-21T13:40:25;901.8;;;819.0;;
68872;SDS011;55907;50.806;12.882;2023-08-21T13:43:27;892.5;;;809.9;;
68872;SDS011;55907;50.806;12.882;2023-08-21T13:46:28;891.0;;;807.5;;
68872;SDS011;55907;50.806;12.882;2023-08-21T13:49:29;899.5;;;815.5;;
68872;SDS011;55907;50.806;12.882;2023-08-21T13:52:31;899.4;;;814.9;;
68872;SDS011;55907;50.806;12.882;2023-08-21T13:55:32;889.8;;;804.2;;
68872;SDS011;55907;50.806;12.882;2023-08-21T13:58:33;912.8;;;831.2;;
68872;SDS011;55907;50.806;12.882;2023-08-21T14:01:35;884.1;;;805.8;;
68872;SDS011;55907;50.806;12.882;2023-08-21T14:04:36;864.4;;;788.8;;
68872;SDS011;55907;50.806;12.882;2023-08-21T14:07:38;872.5;;;796.4;;
68872;SDS011;55907;50.806;12.882;2023-08-21T14:10:39;884.6;;;806.4;;
68872;SDS011;55907;50.806;12.882;2023-08-21T14:13:40;864.5;;;791.1;;
68872;SDS011;55907;50.806;12.882;2023-08-21T14:16:41;871.2;;;797.6;;
68872;SDS011;55907;50.806;12.882;2023-08-21T14:19:43;862.8;;;787.4;;
68872;SDS011;55907;50.806;12.882;2023-08-21T14:22:44;861.2;;;785.0;;
68872;SDS011;55907;50.806;12.882;2023-08-21T14:25:45;866.5;;;789.0;;
68872;SDS011;55907;50.806;12.882;2023-08-21T14:28:47;888.2;;;809.0;;
68872;SDS011;55907;50.806;12.882;2023-08-21T14:31:48;879.7;;;799.6;;
68872;SDS011;55907;50.806;12.882;2023-08-21T14:34:49;881.5;;;804.5;;
68872;SDS011;55907;50.806;12.882;2023-08-21T14:37:51;877.4;;;799.3;;
68872;SDS011;55907;50.806;12.882;2023-08-21T14:40:52;869.1;;;794.7;;
68872;SDS011;55907;50.806;12.882;2023-08-21T14:43:53;837.5;;;766.7;;
68872;SDS011;55907;50.806;12.882;2023-08-21T14:46:55;804.0;;;735.5;;
68872;SDS011;55907;50.806;12.882;2023-08-21T14:49:56;766.6;;;701.1;;
68872;SDS011;55907;50.806;12.882;2023-08-21T14:52:58;739.6;;;676.1;;
68872;SDS011;55907;50.806;12.882;2023-08-21T14:55:59;713.6;;;651.0;;
68872;SDS011;55907;50.806;12.882;2023-08-21T14:59:00;703.0;;;641.9;;
68872;SDS011;55907;50.806;12.882;2023-08-21T15:02:02;691.9;;;631.2;;
68872;SDS011;55907;50.806;12.882;2023-08-21T15:05:03;677.7;;;617.2;;
68872;SDS011;55907;50.806;12.882;2023-08-21T15:08:04;661.2;;;602.5;;
68872;SDS011;55907;50.806;12.882;2023-08-21T15:11:06;655.2;;;596.5;;
68872;SDS011;55907;50.806;12.882;2023-08-21T15:14:09;627.4;;;572.0;;
68872;SDS011;55907;50.806;12.882;2023-08-21T15:17:08;597.5;;;545.1;;
68872;SDS011;55907;50.806;12.882;2023-08-21T15:20:10;568.7;;;518.7;;
68872;SDS011;55907;50.806;12.882;2023-08-21T15:23:11;543.8;;;496.2;;
68872;SDS011;55907;50.806;12.882;2023-08-21T15:26:12;506.7;;;462.7;;
68872;SDS011;55907;50.806;12.882;2023-08-21T15:29:14;484.1;;;443.2;;
68872;SDS011;55907;50.806;12.882;2023-08-21T15:32:15;477.6;;;437.7;;
68872;SDS011;55907;50.806;12.882;2023-08-21T15:35:16;478.0;;;438.9;;
68872;SDS011;55907;50.806;12.882;2023-08-21T15:38:18;473.4;;;435.1;;
68872;SDS011;55907;50.806;12.882;2023-08-21T15:41:19;483.8;;;445.6;;
68872;SDS011;55907;50.806;12.882;2023-08-21T15:44:21;496.3;;;459.1;;
68872;SDS011;55907;50.806;12.882;2023-08-21T15:47:22;508.2;;;472.5;;
68872;SDS011;55907;50.806;12.882;2023-08-21T15:50:23;512.9;;;478.5;;
68872;SDS011;55907;50.806;12.882;2023-08-21T15:53:25;506.0;;;472.3;;
68872;SDS011;55907;50.806;12.882;2023-08-21T15:56:26;520.3;;;486.2;;
68872;SDS011;55907;50.806;12.882;2023-08-21T15:59:27;526.9;;;492.8;;
68872;SDS011;55907;50.806;12.882;2023-08-21T16:02:29;543.6;;;508.9;;
68872;SDS011;55907;50.806;12.882;2023-08-21T16:05:30;542.2;;;507.3;;
68872;SDS011;55907;50.806;12.882;2023-08-21T16:08:31;537.1;;;502.5;;
68872;SDS011;55907;50.806;12.882;2023-08-21T16:11:33;529.5;;;495.8;;
68872;SDS011;55907;50.806;12.882;2023-08-21T16:14:34;523.6;;;490.5;;
68872;SDS011;55907;50.806;12.882;2023-08-21T16:17:36;506.5;;;474.2;;
68872;SDS011;55907;50.806;12.882;2023-08-21T16:20:37;491.9;;;460.4;;
68872;SDS011;55907;50.806;12.882;2023-08-21T16:23:38;490.5;;;459.1;;
68872;SDS011;55907;50.806;12.882;2023-08-21T16:26:40;519.5;;;486.3;;
68872;SDS011;55907;50.806;12.882;2023-08-21T16:29:41;528.5;;;495.0;;
68872;SDS011;55907;50.806;12.882;2023-08-21T16:32:42;522.1;;;489.2;;
68872;SDS011;55907;50.806;12.882;2023-08-21T16:35:44;522.3;;;489.7;;
68872;SDS011;55907;50.806;12.882;2023-08-21T16:38:45;527.1;;;494.2;;
68872;SDS011;55907;50.806;12.882;2023-08-21T16:41:46;521.3;;;488.7;;
68872;SDS011;55907;50.806;12.882;2023-08-21T16:44:48;544.1;;;510.8;;
68872;SDS011;55907;50.806;12.882;2023-08-21T16:47:49;536.9;;;504.3;;
68872;SDS011;55907;50.806;12.882;2023-08-21T16:50:51;530.8;;;499.2;;
68872;SDS011;55907;50.806;12.882;2023-08-21T16:53:52;530.3;;;499.2;;
68872;SDS011;55907;50.806;12.882;2023-08-21T16:56:53;504.3;;;474.7;;
68872;SDS011;55907;50.806;12.882;2023-08-21T16:59:55;510.1;;;480.3;;
68872;SDS011;55907;50.806;12.882;2023-08-21T17:02:56;510.3;;;480.5;;
68872;SDS011;55907;50.806;12.882;2023-08-21T17:05:57;506.2;;;476.4;;
68872;SDS011;55907;50.806;12.882;2023-08-21T17:08:59;497.9;;;468.5;;
68872;SDS011;55907;50.806;12.882;2023-08-21T17:12:00;512.0;;;481.8;;
68872;SDS011;55907;50.806;12.882;2023-08-21T17:15:01;516.4;;;485.9;;
68872;SDS011;55907;50.806;12.882;2023-08-21T17:18:03;248.2;;;232.7;;
68872;SDS011;55907;50.806;12.882;2023-08-21T17:21:04;205.3;;;192.6;;
68872;SDS011;55907;50.806;12.882;2023-08-21T17:24:06;212.0;;;199.4;;